ADDS METAR Data INFO
IDs: Format: Raw Decoded Include TAF

Data at: 1750 UTC 24 Mar 2017

METAR for:KAUS (Austin/Bergstrom Int, TX, US)
Text:KAUS 241653Z 18012KT 7SM SCT032 OVC050 23/21 A2994 RMK AO2 SLP132 BINOVC T02280206
Temperature: 22.8°C ( 73°F)
Dewpoint: 20.6°C ( 69°F) [RH = 87%]
Pressure (altimeter):29.94 inches Hg (1014.0 mb) [Sea level pressure: 1013.2 mb]
Winds:from the S (180 degrees) at 14 MPH (12 knots; 6.2 m/s)
Visibility: 7 sm ( 11 km)
Ceiling:5000 feet AGL
Clouds: scattered clouds at 3200 feet AGL, overcast cloud deck at 5000 feet AGL


Page loaded:  17:50 UTC  |   10:50 AM Pacific  |   11:50 AM Mountain  |   12:50 PM Central  |   01:50 PM Eastern

 

ADVISORIES

FORECASTS

FORECASTS

OBSERVATIONS

USER TOOLS

ABOUT US